Herselt, Belgium
Current Conditions -  °F | °C
As of 9:25 AM on Friday 21 Nov 2014 (Local Time) from EBDT Reporting Station
Haze Haze  
Wind Chill: 36°   Ceiling: Unl
Heat Index: 36°   Visibility: 2.3mi
Dew Point: 36°   Wind: 3mph
Humidity: 100%   Direction: 60°ENE
Pressure: 30.18"   Gusts: NA
Location:  51.05°N, 4.88°E
Report Text: EBDT 210825Z 06003KT 3800 BR FEW240 02/02 Q1022 GRN GRN BECMG WHT
Loading
Personal Weather Stations






























Interactive Weather Map New forecast layout! Learn more

10-Day Weather Forecast

Advertisements
Track Severe Weather on mobile